Pebble Island, Falkland Islands

12:55 PM FKST on September 18, 2014 (GMT -0300)
Mount Pleasant | Change Station
CLOSE
Current Station
Airport
Location: Mount Pleasant,
Elevation: 243 ft
Nearby Weather Stations

Elev 243 ft 51.82 °S, 58.45 °W | Updated 1 hour ago

Rain Showers
Showers Rain Showers
45 °F
Feels Like 36 °F
N
24
Wind Variable Wind from WSW

Today
High -- | Low -- °F
--% Chance of Precip.
Yesterday
High -- | Low -- °F
Precip. -- in
6:56 AM 6:49 PM
Waning Crescent, 26% visible
Pressure 29.39 in
Visibility 6.2 miles
Clouds Scattered Clouds 1500 ft
Windchill 36 °F
Dew Point 34 °F
Humidity 66%
Rainfall 0.00 in
Snow Depth Not available.
UV 4 out of 12
Pollen Not available.
Air Quality Not available.
Flu Activity Not available.
METAR EGYP 181450Z 24021KT 9999 SHRASN SCT015CB 07/01 Q0995 WHT TEMPO 7000 SHRASN SCT012 GRN

More Conditions Fewer Conditions

Pressure 29.39 in
Visibility 6.2 miles
Clouds Scattered Clouds 1500 ft
Windchill 36 °F
Dew Point 34 °F
Humidity 66%
Rainfall 0.00 in
Snow Depth Not available.
UV 4 out of 12
Pollen Not available.
Air Quality Not available.
Flu Activity Not available.
METAR EGYP 181450Z 24021KT 9999 SHRASN SCT015CB 07/01 Q0995 WHT TEMPO 7000 SHRASN SCT012 GRN

More Conditions Fewer Conditions

10-Day Weather Forecast

Almanac

Astronomy

Sep. 18, 2014 Rise Set
Actual Time 6:56 AM FKST 6:49 PM FKST
Civil Twilight 6:23 AM FKST 7:22 PM FKST
Nautical Twilight 5:44 AM FKST 8:01 PM FKST
Astronomical Twilight 5:04 AM FKST 8:41 PM FKST
Moon 4:02 AM FKST 1:26 PM FKST
Length of Visible Light 12h 59m
Length of Day
11h 53m
Tomorrow will be 3m 52s longer.
Waning Crescent, 26% of the Moon is Illuminated
Today
Waning Crescent
Sep 24
New
Oct 1
First Quarter
Oct 8
Full
Oct 15
Last Quarter

Today's Extremes

Country Highs Country Lows

Community

WunderPhotos

Upload Photos

1,754,388 photos uploaded!

Nearby

Snow Depth

Not available.

Earthquake Activity

City Distance Mag. Time & Date
No recent earthquake activity has been reported nearby.
Minimum magnitude displayed is 2.5.

Coastal Water Temperatures

Place Temperature
No Stations Reporting

Nearby Weather Stations